sensor_id;sensor_type;location;lat;lon;timestamp;P1;durP1;ratioP1;P2;durP2;ratioP2
49041;SDS011;34859;51.608;11.462;2022-08-01T00:01:44;3.63;;;3.33;;
49041;SDS011;34859;51.608;11.462;2022-08-01T00:04:28;5.13;;;4.23;;
49041;SDS011;34859;51.608;11.462;2022-08-01T00:07:12;5.32;;;4.13;;
49041;SDS011;34859;51.608;11.462;2022-08-01T00:09:56;5.35;;;3.85;;
49041;SDS011;34859;51.608;11.462;2022-08-01T00:12:41;6.77;;;3.70;;
49041;SDS011;34859;51.608;11.462;2022-08-01T00:15:26;3.67;;;3.40;;
49041;SDS011;34859;51.608;11.462;2022-08-01T00:18:11;3.63;;;3.33;;
49041;SDS011;34859;51.608;11.462;2022-08-01T00:20:55;4.37;;;3.40;;
49041;SDS011;34859;51.608;11.462;2022-08-01T00:23:39;3.53;;;3.28;;
49041;SDS011;34859;51.608;11.462;2022-08-01T00:26:23;2.97;;;2.50;;
49041;SDS011;34859;51.608;11.462;2022-08-01T00:29:07;4.05;;;2.20;;
49041;SDS011;34859;51.608;11.462;2022-08-01T00:31:48;2.40;;;2.22;;
49041;SDS011;34859;51.608;11.462;2022-08-01T00:34:32;2.30;;;2.17;;
49041;SDS011;34859;51.608;11.462;2022-08-01T00:37:14;2.20;;;2.10;;
49041;SDS011;34859;51.608;11.462;2022-08-01T00:39:58;2.50;;;2.40;;
49041;SDS011;34859;51.608;11.462;2022-08-01T00:42:43;2.83;;;2.40;;
49041;SDS011;34859;51.608;11.462;2022-08-01T00:45:24;2.83;;;2.20;;
49041;SDS011;34859;51.608;11.462;2022-08-01T00:48:09;2.40;;;2.20;;
49041;SDS011;34859;51.608;11.462;2022-08-01T00:50:53;2.38;;;2.08;;
49041;SDS011;34859;51.608;11.462;2022-08-01T00:53:34;2.22;;;2.03;;
49041;SDS011;34859;51.608;11.462;2022-08-01T00:56:19;5.67;;;2.47;;
49041;SDS011;34859;51.608;11.462;2022-08-01T00:59:04;2.20;;;2.00;;
49041;SDS011;34859;51.608;11.462;2022-08-01T01:01:49;2.22;;;2.13;;
49041;SDS011;34859;51.608;11.462;2022-08-01T01:04:33;3.10;;;2.03;;
49041;SDS011;34859;51.608;11.462;2022-08-01T01:10:23;2.45;;;2.33;;
49041;SDS011;34859;51.608;11.462;2022-08-01T01:13:26;2.70;;;2.60;;
49041;SDS011;34859;51.608;11.462;2022-08-01T01:16:15;2.55;;;2.35;;
49041;SDS011;34859;51.608;11.462;2022-08-01T01:19:02;2.28;;;2.15;;
49041;SDS011;34859;51.608;11.462;2022-08-01T01:31:17;4.40;;;2.20;;
49041;SDS011;34859;51.608;11.462;2022-08-01T01:34:05;3.00;;;2.20;;
49041;SDS011;34859;51.608;11.462;2022-08-01T01:36:51;2.20;;;2.10;;
49041;SDS011;34859;51.608;11.462;2022-08-01T01:39:38;2.00;;;1.90;;
49041;SDS011;34859;51.608;11.462;2022-08-01T01:42:25;2.30;;;2.20;;
49041;SDS011;34859;51.608;11.462;2022-08-01T01:45:10;2.90;;;2.80;;
49041;SDS011;34859;51.608;11.462;2022-08-01T01:47:52;2.67;;;2.50;;
49041;SDS011;34859;51.608;11.462;2022-08-01T01:50:39;2.40;;;2.30;;
49041;SDS011;34859;51.608;11.462;2022-08-01T01:53:27;2.47;;;2.28;;
49041;SDS011;34859;51.608;11.462;2022-08-01T01:56:12;2.45;;;2.35;;
49041;SDS011;34859;51.608;11.462;2022-08-01T01:59:00;2.33;;;2.13;;
49041;SDS011;34859;51.608;11.462;2022-08-01T02:01:42;2.95;;;2.40;;
49041;SDS011;34859;51.608;11.462;2022-08-01T02:04:29;3.17;;;2.25;;
49041;SDS011;34859;51.608;11.462;2022-08-01T02:07:17;5.32;;;2.60;;
49041;SDS011;34859;51.608;11.462;2022-08-01T02:10:06;3.28;;;2.55;;
49041;SDS011;34859;51.608;11.462;2022-08-01T02:12:49;2.38;;;2.28;;
49041;SDS011;34859;51.608;11.462;2022-08-01T02:15:34;2.72;;;2.53;;
49041;SDS011;34859;51.608;11.462;2022-08-01T02:18:23;1.90;;;1.80;;
49041;SDS011;34859;51.608;11.462;2022-08-01T02:21:05;2.50;;;2.30;;
49041;SDS011;34859;51.608;11.462;2022-08-01T02:23:50;2.70;;;2.50;;
49041;SDS011;34859;51.608;11.462;2022-08-01T02:26:36;3.97;;;2.30;;
49041;SDS011;34859;51.608;11.462;2022-08-01T02:29:27;2.30;;;2.20;;
49041;SDS011;34859;51.608;11.462;2022-08-01T02:32:20;2.60;;;2.50;;
49041;SDS011;34859;51.608;11.462;2022-08-01T02:35:19;2.50;;;2.40;;
49041;SDS011;34859;51.608;11.462;2022-08-01T02:38:11;2.78;;;2.50;;
49041;SDS011;34859;51.608;11.462;2022-08-01T02:40:58;2.40;;;2.17;;
49041;SDS011;34859;51.608;11.462;2022-08-01T02:43:47;2.30;;;2.20;;
49041;SDS011;34859;51.608;11.462;2022-08-01T02:46:36;2.42;;;1.85;;
49041;SDS011;34859;51.608;11.462;2022-08-01T02:49:25;1.92;;;1.80;;
49041;SDS011;34859;51.608;11.462;2022-08-01T02:52:15;2.00;;;1.90;;
49041;SDS011;34859;51.608;11.462;2022-08-01T02:55:01;2.30;;;2.20;;
49041;SDS011;34859;51.608;11.462;2022-08-01T02:57:46;2.20;;;2.00;;
49041;SDS011;34859;51.608;11.462;2022-08-01T03:00:33;2.17;;;2.08;;
49041;SDS011;34859;51.608;11.462;2022-08-01T03:03:17;2.20;;;2.10;;
49041;SDS011;34859;51.608;11.462;2022-08-01T03:06:02;2.75;;;2.45;;
49041;SDS011;34859;51.608;11.462;2022-08-01T03:11:32;2.13;;;2.03;;
49041;SDS011;34859;51.608;11.462;2022-08-01T03:14:18;2.20;;;2.10;;
49041;SDS011;34859;51.608;11.462;2022-08-01T03:17:01;2.22;;;2.13;;
49041;SDS011;34859;51.608;11.462;2022-08-01T03:19:44;2.63;;;2.53;;
49041;SDS011;34859;51.608;11.462;2022-08-01T03:22:30;2.42;;;2.05;;
49041;SDS011;34859;51.608;11.462;2022-08-01T03:25:17;2.45;;;2.33;;
49041;SDS011;34859;51.608;11.462;2022-08-01T03:28:01;2.10;;;2.00;;
49041;SDS011;34859;51.608;11.462;2022-08-01T03:30:47;2.38;;;2.22;;
49041;SDS011;34859;51.608;11.462;2022-08-01T03:33:33;2.97;;;2.28;;
49041;SDS011;34859;51.608;11.462;2022-08-01T03:36:17;2.00;;;1.90;;
49041;SDS011;34859;51.608;11.462;2022-08-01T03:39:06;2.42;;;1.95;;
49041;SDS011;34859;51.608;11.462;2022-08-01T03:41:56;3.17;;;2.22;;
49041;SDS011;34859;51.608;11.462;2022-08-01T03:44:50;2.97;;;2.30;;
49041;SDS011;34859;51.608;11.462;2022-08-01T03:47:38;2.10;;;2.00;;
49041;SDS011;34859;51.608;11.462;2022-08-01T03:50:28;2.40;;;2.30;;
49041;SDS011;34859;51.608;11.462;2022-08-01T03:53:14;3.03;;;2.10;;
49041;SDS011;34859;51.608;11.462;2022-08-01T03:55:59;2.17;;;2.08;;
49041;SDS011;34859;51.608;11.462;2022-08-01T03:58:42;2.30;;;2.20;;
49041;SDS011;34859;51.608;11.462;2022-08-01T04:01:24;2.85;;;2.38;;
49041;SDS011;34859;51.608;11.462;2022-08-01T04:04:09;2.92;;;2.03;;
49041;SDS011;34859;51.608;11.462;2022-08-01T04:06:54;2.53;;;2.10;;
49041;SDS011;34859;51.608;11.462;2022-08-01T04:09:34;1.98;;;1.88;;
49041;SDS011;34859;51.608;11.462;2022-08-01T04:12:18;2.30;;;2.10;;
49041;SDS011;34859;51.608;11.462;2022-08-01T04:15:03;1.67;;;1.67;;
49041;SDS011;34859;51.608;11.462;2022-08-01T04:17:48;3.95;;;1.75;;
49041;SDS011;34859;51.608;11.462;2022-08-01T04:20:32;2.40;;;2.30;;
49041;SDS011;34859;51.608;11.462;2022-08-01T04:23:17;2.80;;;2.55;;
49041;SDS011;34859;51.608;11.462;2022-08-01T04:26:06;2.08;;;1.98;;
49041;SDS011;34859;51.608;11.462;2022-08-01T04:28:52;2.30;;;2.20;;
49041;SDS011;34859;51.608;11.462;2022-08-01T04:31:39;2.38;;;2.28;;
49041;SDS011;34859;51.608;11.462;2022-08-01T04:34:28;2.58;;;2.40;;
49041;SDS011;34859;51.608;11.462;2022-08-01T04:37:14;3.58;;;2.20;;
49041;SDS011;34859;51.608;11.462;2022-08-01T04:40:00;2.35;;;2.15;;
49041;SDS011;34859;51.608;11.462;2022-08-01T04:42:45;2.40;;;2.20;;
49041;SDS011;34859;51.608;11.462;2022-08-01T04:45:32;2.08;;;1.98;;
49041;SDS011;34859;51.608;11.462;2022-08-01T04:48:17;2.13;;;2.03;;
49041;SDS011;34859;51.608;11.462;2022-08-01T04:51:03;1.88;;;1.77;;
49041;SDS011;34859;51.608;11.462;2022-08-01T04:53:47;1.95;;;1.85;;
49041;SDS011;34859;51.608;11.462;2022-08-01T04:56:34;1.85;;;1.75;;
49041;SDS011;34859;51.608;11.462;2022-08-01T04:59:18;1.55;;;1.45;;
49041;SDS011;34859;51.608;11.462;2022-08-01T05:02:22;2.03;;;1.92;;
49041;SDS011;34859;51.608;11.462;2022-08-01T05:05:07;3.17;;;1.60;;
49041;SDS011;34859;51.608;11.462;2022-08-01T05:07:51;1.73;;;1.63;;
49041;SDS011;34859;51.608;11.462;2022-08-01T05:10:35;1.43;;;1.40;;
49041;SDS011;34859;51.608;11.462;2022-08-01T05:13:20;1.92;;;1.67;;
49041;SDS011;34859;51.608;11.462;2022-08-01T05:16:01;1.80;;;1.70;;
49041;SDS011;34859;51.608;11.462;2022-08-01T05:18:44;2.20;;;1.77;;
49041;SDS011;34859;51.608;11.462;2022-08-01T05:21:24;3.15;;;1.52;;
49041;SDS011;34859;51.608;11.462;2022-08-01T05:24:06;1.40;;;1.40;;
49041;SDS011;34859;51.608;11.462;2022-08-01T05:26:50;1.60;;;1.50;;
49041;SDS011;34859;51.608;11.462;2022-08-01T05:29:31;1.48;;;1.48;;
49041;SDS011;34859;51.608;11.462;2022-08-01T05:32:13;3.22;;;1.60;;
49041;SDS011;34859;51.608;11.462;2022-08-01T05:34:57;1.50;;;1.50;;
49041;SDS011;34859;51.608;11.462;2022-08-01T05:37:41;1.50;;;1.40;;
49041;SDS011;34859;51.608;11.462;2022-08-01T05:40:25;3.05;;;1.52;;
49041;SDS011;34859;51.608;11.462;2022-08-01T05:43:09;1.73;;;1.63;;
49041;SDS011;34859;51.608;11.462;2022-08-01T05:45:53;1.57;;;1.47;;
49041;SDS011;34859;51.608;11.462;2022-08-01T05:48:37;1.90;;;1.30;;
49041;SDS011;34859;51.608;11.462;2022-08-01T05:51:21;3.47;;;1.20;;
49041;SDS011;34859;51.608;11.462;2022-08-01T05:54:06;1.05;;;1.00;;
49041;SDS011;34859;51.608;11.462;2022-08-01T05:56:47;0.73;;;0.70;;
49041;SDS011;34859;51.608;11.462;2022-08-01T05:59:31;2.22;;;0.75;;
49041;SDS011;34859;51.608;11.462;2022-08-01T06:02:16;1.50;;;0.60;;
49041;SDS011;34859;51.608;11.462;2022-08-01T06:04:57;0.57;;;0.50;;
49041;SDS011;34859;51.608;11.462;2022-08-01T06:07:41;0.60;;;0.60;;
49041;SDS011;34859;51.608;11.462;2022-08-01T06:10:25;2.30;;;0.73;;
49041;SDS011;34859;51.608;11.462;2022-08-01T06:13:09;1.20;;;0.70;;
49041;SDS011;34859;51.608;11.462;2022-08-01T06:15:53;2.03;;;0.70;;
49041;SDS011;34859;51.608;11.462;2022-08-01T06:18:37;1.03;;;0.77;;
49041;SDS011;34859;51.608;11.462;2022-08-01T06:21:21;1.07;;;0.80;;
49041;SDS011;34859;51.608;11.462;2022-08-01T06:24:06;1.25;;;0.80;;
49041;SDS011;34859;51.608;11.462;2022-08-01T06:26:51;3.38;;;0.70;;
49041;SDS011;34859;51.608;11.462;2022-08-01T06:29:35;0.77;;;0.43;;
49041;SDS011;34859;51.608;11.462;2022-08-01T06:32:19;0.70;;;0.70;;
49041;SDS011;34859;51.608;11.462;2022-08-01T06:35:07;2.13;;;0.93;;
49041;SDS011;34859;51.608;11.462;2022-08-01T06:37:48;1.63;;;0.70;;
49041;SDS011;34859;51.608;11.462;2022-08-01T06:40:32;0.70;;;0.70;;
49041;SDS011;34859;51.608;11.462;2022-08-01T06:43:17;0.60;;;0.60;;
49041;SDS011;34859;51.608;11.462;2022-08-01T06:46:02;4.20;;;0.80;;
49041;SDS011;34859;51.608;11.462;2022-08-01T06:48:46;1.65;;;0.60;;
49041;SDS011;34859;51.608;11.462;2022-08-01T06:51:30;0.70;;;0.70;;
49041;SDS011;34859;51.608;11.462;2022-08-01T06:54:14;3.55;;;0.50;;
49041;SDS011;34859;51.608;11.462;2022-08-01T06:56:59;1.02;;;0.50;;
49041;SDS011;34859;51.608;11.462;2022-08-01T06:59:41;0.52;;;0.50;;
49041;SDS011;34859;51.608;11.462;2022-08-01T07:02:25;0.93;;;0.50;;
49041;SDS011;34859;51.608;11.462;2022-08-01T07:05:09;1.17;;;0.40;;
49041;SDS011;34859;51.608;11.462;2022-08-01T07:07:53;0.80;;;0.68;;
49041;SDS011;34859;51.608;11.462;2022-08-01T07:10:37;4.30;;;0.83;;
49041;SDS011;34859;51.608;11.462;2022-08-01T07:13:22;6.70;;;0.90;;
49041;SDS011;34859;51.608;11.462;2022-08-01T07:16:08;0.60;;;0.60;;
49041;SDS011;34859;51.608;11.462;2022-08-01T07:18:52;0.50;;;0.50;;
49041;SDS011;34859;51.608;11.462;2022-08-01T07:21:36;0.57;;;0.57;;
49041;SDS011;34859;51.608;11.462;2022-08-01T07:24:21;2.40;;;0.60;;
49041;SDS011;34859;51.608;11.462;2022-08-01T07:27:06;0.52;;;0.52;;
49041;SDS011;34859;51.608;11.462;2022-08-01T07:29:47;0.90;;;0.60;;
49041;SDS011;34859;51.608;11.462;2022-08-01T07:32:31;0.50;;;0.50;;
49041;SDS011;34859;51.608;11.462;2022-08-01T07:35:15;4.20;;;0.30;;
49041;SDS011;34859;51.608;11.462;2022-08-01T07:37:59;0.55;;;0.20;;
49041;SDS011;34859;51.608;11.462;2022-08-01T07:40:43;0.52;;;0.22;;
49041;SDS011;34859;51.608;11.462;2022-08-01T07:43:28;0.63;;;0.35;;
49041;SDS011;34859;51.608;11.462;2022-08-01T07:46:12;1.85;;;0.30;;
49041;SDS011;34859;51.608;11.462;2022-08-01T07:48:57;0.47;;;0.43;;
49041;SDS011;34859;51.608;11.462;2022-08-01T07:51:38;2.70;;;0.70;;
49041;SDS011;34859;51.608;11.462;2022-08-01T07:54:22;0.68;;;0.68;;
49041;SDS011;34859;51.608;11.462;2022-08-01T07:57:11;0.77;;;0.77;;
49041;SDS011;34859;51.608;11.462;2022-08-01T07:59:55;2.33;;;1.10;;
49041;SDS011;34859;51.608;11.462;2022-08-01T08:02:39;2.10;;;0.97;;
49041;SDS011;34859;51.608;11.462;2022-08-01T08:05:24;2.30;;;1.10;;
49041;SDS011;34859;51.608;11.462;2022-08-01T08:08:11;0.80;;;0.80;;
49041;SDS011;34859;51.608;11.462;2022-08-01T08:10:57;0.60;;;0.60;;
49041;SDS011;34859;51.608;11.462;2022-08-01T08:13:42;2.20;;;0.70;;
49041;SDS011;34859;51.608;11.462;2022-08-01T08:16:26;0.68;;;0.60;;
49041;SDS011;34859;51.608;11.462;2022-08-01T08:21:56;0.40;;;0.40;;
49041;SDS011;34859;51.608;11.462;2022-08-01T08:24:40;0.50;;;0.50;;
49041;SDS011;34859;51.608;11.462;2022-08-01T08:27:22;0.75;;;0.40;;
49041;SDS011;34859;51.608;11.462;2022-08-01T08:30:06;0.60;;;0.57;;
49041;SDS011;34859;51.608;11.462;2022-08-01T08:32:51;5.10;;;0.70;;
49041;SDS011;34859;51.608;11.462;2022-08-01T08:35:35;1.33;;;0.70;;
49041;SDS011;34859;51.608;11.462;2022-08-01T08:38:19;0.88;;;0.88;;
49041;SDS011;34859;51.608;11.462;2022-08-01T08:41:01;1.00;;;1.00;;
49041;SDS011;34859;51.608;11.462;2022-08-01T08:43:42;0.85;;;0.60;;
49041;SDS011;34859;51.608;11.462;2022-08-01T08:46:27;0.63;;;0.63;;
49041;SDS011;34859;51.608;11.462;2022-08-01T08:49:14;0.60;;;0.60;;
49041;SDS011;34859;51.608;11.462;2022-08-01T08:52:02;0.80;;;0.80;;
49041;SDS011;34859;51.608;11.462;2022-08-01T08:54:48;0.68;;;0.68;;
49041;SDS011;34859;51.608;11.462;2022-08-01T08:57:33;0.60;;;0.60;;
49041;SDS011;34859;51.608;11.462;2022-08-01T09:00:18;0.70;;;0.70;;
49041;SDS011;34859;51.608;11.462;2022-08-01T09:03:02;0.70;;;0.70;;
49041;SDS011;34859;51.608;11.462;2022-08-01T09:05:46;0.90;;;0.50;;
49041;SDS011;34859;51.608;11.462;2022-08-01T09:08:31;0.50;;;0.50;;
49041;SDS011;34859;51.608;11.462;2022-08-01T09:11:16;0.70;;;0.60;;
49041;SDS011;34859;51.608;11.462;2022-08-01T09:14:08;0.60;;;0.60;;
49041;SDS011;34859;51.608;11.462;2022-08-01T09:19:51;0.70;;;0.50;;
49041;SDS011;34859;51.608;11.462;2022-08-01T09:22:37;0.68;;;0.60;;
49041;SDS011;34859;51.608;11.462;2022-08-01T09:25:21;0.47;;;0.47;;
49041;SDS011;34859;51.608;11.462;2022-08-01T09:28:05;1.50;;;0.60;;
49041;SDS011;34859;51.608;11.462;2022-08-01T09:30:50;0.70;;;0.60;;
49041;SDS011;34859;51.608;11.462;2022-08-01T09:33:53;0.80;;;0.30;;
49041;SDS011;34859;51.608;11.462;2022-08-01T09:36:46;0.30;;;0.10;;
49041;SDS011;34859;51.608;11.462;2022-08-01T09:39:40;0.38;;;0.20;;
49041;SDS011;34859;51.608;11.462;2022-08-01T09:42:26;0.20;;;0.10;;
49041;SDS011;34859;51.608;11.462;2022-08-01T09:45:30;0.30;;;0.30;;
49041;SDS011;34859;51.608;11.462;2022-08-01T09:48:16;0.38;;;0.10;;
49041;SDS011;34859;51.608;11.462;2022-08-01T09:51:00;1.55;;;0.10;;
49041;SDS011;34859;51.608;11.462;2022-08-01T09:53:46;1.02;;;0.10;;
49041;SDS011;34859;51.608;11.462;2022-08-01T09:56:36;0.25;;;0.00;;
49041;SDS011;34859;51.608;11.462;2022-08-01T09:59:22;0.05;;;0.05;;
49041;SDS011;34859;51.608;11.462;2022-08-01T10:05:15;0.20;;;0.10;;
49041;SDS011;34859;51.608;11.462;2022-08-01T10:08:00;0.43;;;0.20;;
49041;SDS011;34859;51.608;11.462;2022-08-01T10:11:09;0.10;;;0.10;;
49041;SDS011;34859;51.608;11.462;2022-08-01T10:13:52;0.20;;;0.20;;
49041;SDS011;34859;51.608;11.462;2022-08-01T10:16:36;0.20;;;0.20;;
49041;SDS011;34859;51.608;11.462;2022-08-01T10:19:24;0.70;;;0.30;;
49041;SDS011;34859;51.608;11.462;2022-08-01T10:22:11;1.85;;;0.30;;
49041;SDS011;34859;51.608;11.462;2022-08-01T10:25:02;0.20;;;0.20;;
49041;SDS011;34859;51.608;11.462;2022-08-01T10:27:49;0.98;;;0.28;;
49041;SDS011;34859;51.608;11.462;2022-08-01T10:30:35;0.40;;;0.38;;
49041;SDS011;34859;51.608;11.462;2022-08-01T10:33:21;0.20;;;0.20;;
49041;SDS011;34859;51.608;11.462;2022-08-01T10:36:07;0.22;;;0.20;;
49041;SDS011;34859;51.608;11.462;2022-08-01T10:38:53;0.60;;;0.35;;
49041;SDS011;34859;51.608;11.462;2022-08-01T10:41:39;0.30;;;0.30;;
49041;SDS011;34859;51.608;11.462;2022-08-01T10:44:24;0.40;;;0.40;;
49041;SDS011;34859;51.608;11.462;2022-08-01T10:47:10;1.70;;;0.80;;
49041;SDS011;34859;51.608;11.462;2022-08-01T10:50:02;0.85;;;0.85;;
49041;SDS011;34859;51.608;11.462;2022-08-01T10:53:06;1.10;;;0.80;;
49041;SDS011;34859;51.608;11.462;2022-08-01T10:58:41;0.60;;;0.60;;
49041;SDS011;34859;51.608;11.462;2022-08-01T11:01:27;0.90;;;0.90;;
49041;SDS011;34859;51.608;11.462;2022-08-01T11:04:15;1.98;;;0.95;;
49041;SDS011;34859;51.608;11.462;2022-08-01T11:09:49;0.95;;;0.93;;
49041;SDS011;34859;51.608;11.462;2022-08-01T11:12:46;3.05;;;0.80;;
49041;SDS011;34859;51.608;11.462;2022-08-01T11:15:31;2.58;;;0.95;;
49041;SDS011;34859;51.608;11.462;2022-08-01T11:21:08;1.67;;;1.00;;
49041;SDS011;34859;51.608;11.462;2022-08-01T11:23:52;2.70;;;1.30;;
49041;SDS011;34859;51.608;11.462;2022-08-01T11:26:37;1.90;;;1.50;;
49041;SDS011;34859;51.608;11.462;2022-08-01T11:29:18;1.83;;;1.23;;
49041;SDS011;34859;51.608;11.462;2022-08-01T11:32:23;1.27;;;1.27;;
49041;SDS011;34859;51.608;11.462;2022-08-01T11:35:08;2.40;;;1.30;;
49041;SDS011;34859;51.608;11.462;2022-08-01T11:37:55;0.90;;;0.90;;
49041;SDS011;34859;51.608;11.462;2022-08-01T11:40:40;0.47;;;0.47;;
49041;SDS011;34859;51.608;11.462;2022-08-01T11:43:24;4.57;;;0.30;;
49041;SDS011;34859;51.608;11.462;2022-08-01T11:46:10;0.40;;;0.40;;
49041;SDS011;34859;51.608;11.462;2022-08-01T11:57:44;0.20;;;0.20;;
49041;SDS011;34859;51.608;11.462;2022-08-01T12:00:28;0.28;;;0.25;;
49041;SDS011;34859;51.608;11.462;2022-08-01T12:03:14;0.65;;;0.25;;
49041;SDS011;34859;51.608;11.462;2022-08-01T12:05:58;1.35;;;0.43;;
49041;SDS011;34859;51.608;11.462;2022-08-01T12:08:40;0.40;;;0.40;;
49041;SDS011;34859;51.608;11.462;2022-08-01T12:11:24;0.20;;;0.20;;
49041;SDS011;34859;51.608;11.462;2022-08-01T12:14:08;0.38;;;0.38;;
49041;SDS011;34859;51.608;11.462;2022-08-01T12:16:53;1.85;;;0.50;;
49041;SDS011;34859;51.608;11.462;2022-08-01T12:19:38;0.40;;;0.40;;
49041;SDS011;34859;51.608;11.462;2022-08-01T12:22:24;0.75;;;0.50;;
49041;SDS011;34859;51.608;11.462;2022-08-01T12:25:13;0.50;;;0.50;;
49041;SDS011;34859;51.608;11.462;2022-08-01T12:27:59;1.27;;;0.50;;
49041;SDS011;34859;51.608;11.462;2022-08-01T12:30:46;1.55;;;0.60;;
49041;SDS011;34859;51.608;11.462;2022-08-01T12:33:31;0.60;;;0.60;;
49041;SDS011;34859;51.608;11.462;2022-08-01T12:36:26;1.30;;;1.20;;
49041;SDS011;34859;51.608;11.462;2022-08-01T12:39:11;2.53;;;2.33;;
49041;SDS011;34859;51.608;11.462;2022-08-01T12:41:55;2.30;;;2.20;;
49041;SDS011;34859;51.608;11.462;2022-08-01T12:44:40;2.40;;;2.00;;
49041;SDS011;34859;51.608;11.462;2022-08-01T12:47:27;1.85;;;1.75;;
49041;SDS011;34859;51.608;11.462;2022-08-01T12:50:11;5.93;;;1.70;;
49041;SDS011;34859;51.608;11.462;2022-08-01T12:52:59;2.05;;;1.33;;
49041;SDS011;34859;51.608;11.462;2022-08-01T12:55:45;2.00;;;0.80;;
49041;SDS011;34859;51.608;11.462;2022-08-01T12:58:31;0.52;;;0.40;;
49041;SDS011;34859;51.608;11.462;2022-08-01T13:01:24;0.30;;;0.30;;
49041;SDS011;34859;51.608;11.462;2022-08-01T13:04:10;0.73;;;0.30;;
49041;SDS011;34859;51.608;11.462;2022-08-01T13:06:54;0.52;;;0.52;;
49041;SDS011;34859;51.608;11.462;2022-08-01T13:09:48;0.50;;;0.50;;
49041;SDS011;34859;51.608;11.462;2022-08-01T13:12:34;0.30;;;0.30;;
49041;SDS011;34859;51.608;11.462;2022-08-01T13:15:19;0.20;;;0.20;;
49041;SDS011;34859;51.608;11.462;2022-08-01T13:21:12;0.30;;;0.30;;
49041;SDS011;34859;51.608;11.462;2022-08-01T13:24:09;0.20;;;0.20;;
49041;SDS011;34859;51.608;11.462;2022-08-01T13:29:42;0.30;;;0.30;;
49041;SDS011;34859;51.608;11.462;2022-08-01T13:32:26;0.68;;;0.57;;
49041;SDS011;34859;51.608;11.462;2022-08-01T13:35:11;2.47;;;1.20;;
49041;SDS011;34859;51.608;11.462;2022-08-01T13:37:53;0.50;;;0.50;;
49041;SDS011;34859;51.608;11.462;2022-08-01T13:40:37;0.50;;;0.50;;
49041;SDS011;34859;51.608;11.462;2022-08-01T13:43:21;0.30;;;0.30;;
49041;SDS011;34859;51.608;11.462;2022-08-01T13:46:05;2.03;;;0.50;;
49041;SDS011;34859;51.608;11.462;2022-08-01T13:48:49;0.68;;;0.68;;
49041;SDS011;34859;51.608;11.462;2022-08-01T13:51:31;0.60;;;0.60;;
49041;SDS011;34859;51.608;11.462;2022-08-01T13:54:13;1.15;;;0.73;;
49041;SDS011;34859;51.608;11.462;2022-08-01T13:56:57;0.70;;;0.70;;
49041;SDS011;34859;51.608;11.462;2022-08-01T13:59:41;0.85;;;0.77;;
49041;SDS011;34859;51.608;11.462;2022-08-01T14:02:26;1.33;;;0.63;;
49041;SDS011;34859;51.608;11.462;2022-08-01T14:05:10;2.25;;;0.65;;
49041;SDS011;34859;51.608;11.462;2022-08-01T14:07:55;0.50;;;0.50;;
49041;SDS011;34859;51.608;11.462;2022-08-01T14:10:40;0.80;;;0.73;;
49041;SDS011;34859;51.608;11.462;2022-08-01T14:16:09;2.53;;;0.60;;
49041;SDS011;34859;51.608;11.462;2022-08-01T14:18:55;1.25;;;1.15;;
49041;SDS011;34859;51.608;11.462;2022-08-01T14:21:39;0.80;;;0.80;;
49041;SDS011;34859;51.608;11.462;2022-08-01T14:24:24;1.60;;;1.60;;
49041;SDS011;34859;51.608;11.462;2022-08-01T14:27:09;1.27;;;1.25;;
49041;SDS011;34859;51.608;11.462;2022-08-01T14:29:54;0.80;;;0.80;;
49041;SDS011;34859;51.608;11.462;2022-08-01T14:32:38;0.95;;;0.85;;
49041;SDS011;34859;51.608;11.462;2022-08-01T14:35:19;1.05;;;0.75;;
49041;SDS011;34859;51.608;11.462;2022-08-01T14:38:03;1.00;;;0.87;;
49041;SDS011;34859;51.608;11.462;2022-08-01T14:40:47;0.80;;;0.80;;
49041;SDS011;34859;51.608;11.462;2022-08-01T14:43:34;2.05;;;0.82;;
49041;SDS011;34859;51.608;11.462;2022-08-01T14:46:18;1.23;;;0.83;;
49041;SDS011;34859;51.608;11.462;2022-08-01T14:49:03;2.00;;;0.85;;
49041;SDS011;34859;51.608;11.462;2022-08-01T14:51:47;1.35;;;1.02;;
49041;SDS011;34859;51.608;11.462;2022-08-01T14:54:31;1.25;;;1.15;;
49041;SDS011;34859;51.608;11.462;2022-08-01T14:57:15;0.77;;;0.77;;
49041;SDS011;34859;51.608;11.462;2022-08-01T15:00:02;0.75;;;0.75;;
49041;SDS011;34859;51.608;11.462;2022-08-01T15:02:48;4.53;;;0.60;;
49041;SDS011;34859;51.608;11.462;2022-08-01T15:05:33;0.82;;;0.82;;
49041;SDS011;34859;51.608;11.462;2022-08-01T15:08:17;0.50;;;0.50;;
49041;SDS011;34859;51.608;11.462;2022-08-01T15:11:01;0.70;;;0.60;;
49041;SDS011;34859;51.608;11.462;2022-08-01T15:13:45;2.05;;;0.75;;
49041;SDS011;34859;51.608;11.462;2022-08-01T15:16:49;1.25;;;0.70;;
49041;SDS011;34859;51.608;11.462;2022-08-01T15:19:30;2.40;;;1.08;;
49041;SDS011;34859;51.608;11.462;2022-08-01T15:22:15;1.20;;;1.10;;
49041;SDS011;34859;51.608;11.462;2022-08-01T15:25:00;3.25;;;1.23;;
49041;SDS011;34859;51.608;11.462;2022-08-01T15:27:45;1.58;;;1.48;;
49041;SDS011;34859;51.608;11.462;2022-08-01T15:30:29;1.80;;;1.70;;
49041;SDS011;34859;51.608;11.462;2022-08-01T15:33:13;1.98;;;1.67;;
49041;SDS011;34859;51.608;11.462;2022-08-01T15:35:57;2.60;;;1.48;;
49041;SDS011;34859;51.608;11.462;2022-08-01T15:38:41;1.42;;;1.40;;
49041;SDS011;34859;51.608;11.462;2022-08-01T15:41:25;2.87;;;1.63;;
49041;SDS011;34859;51.608;11.462;2022-08-01T15:44:09;1.73;;;1.20;;
49041;SDS011;34859;51.608;11.462;2022-08-01T15:46:51;1.40;;;1.30;;
49041;SDS011;34859;51.608;11.462;2022-08-01T15:49:35;1.35;;;1.25;;
49041;SDS011;34859;51.608;11.462;2022-08-01T15:52:20;2.65;;;1.40;;
49041;SDS011;34859;51.608;11.462;2022-08-01T15:55:04;1.20;;;1.10;;
49041;SDS011;34859;51.608;11.462;2022-08-01T15:57:49;1.50;;;1.50;;
49041;SDS011;34859;51.608;11.462;2022-08-01T16:00:30;1.27;;;1.17;;
49041;SDS011;34859;51.608;11.462;2022-08-01T16:03:14;1.40;;;1.30;;
49041;SDS011;34859;51.608;11.462;2022-08-01T16:05:58;1.50;;;1.30;;
49041;SDS011;34859;51.608;11.462;2022-08-01T16:08:42;1.00;;;1.00;;
49041;SDS011;34859;51.608;11.462;2022-08-01T16:11:26;2.73;;;1.77;;
49041;SDS011;34859;51.608;11.462;2022-08-01T16:14:08;1.20;;;1.10;;
49041;SDS011;34859;51.608;11.462;2022-08-01T16:16:52;4.32;;;1.50;;
49041;SDS011;34859;51.608;11.462;2022-08-01T16:19:33;3.53;;;1.38;;
49041;SDS011;34859;51.608;11.462;2022-08-01T16:22:17;1.47;;;1.40;;
49041;SDS011;34859;51.608;11.462;2022-08-01T16:25:02;2.13;;;1.48;;
49041;SDS011;34859;51.608;11.462;2022-08-01T16:27:47;1.90;;;1.50;;
49041;SDS011;34859;51.608;11.462;2022-08-01T16:30:32;3.40;;;1.70;;
49041;SDS011;34859;51.608;11.462;2022-08-01T16:33:14;1.60;;;1.50;;
49041;SDS011;34859;51.608;11.462;2022-08-01T16:35:58;2.40;;;1.42;;
49041;SDS011;34859;51.608;11.462;2022-08-01T16:38:42;1.95;;;1.70;;
49041;SDS011;34859;51.608;11.462;2022-08-01T16:44:11;4.07;;;1.80;;
49041;SDS011;34859;51.608;11.462;2022-08-01T16:46:55;4.03;;;1.47;;
49041;SDS011;34859;51.608;11.462;2022-08-01T16:49:39;2.50;;;1.70;;
49041;SDS011;34859;51.608;11.462;2022-08-01T16:52:23;2.13;;;1.60;;
49041;SDS011;34859;51.608;11.462;2022-08-01T16:55:08;2.03;;;1.92;;
49041;SDS011;34859;51.608;11.462;2022-08-01T16:57:50;2.30;;;2.10;;
49041;SDS011;34859;51.608;11.462;2022-08-01T17:00:34;2.60;;;2.47;;
49041;SDS011;34859;51.608;11.462;2022-08-01T17:03:21;3.00;;;2.80;;
49041;SDS011;34859;51.608;11.462;2022-08-01T17:06:06;2.95;;;2.70;;
49041;SDS011;34859;51.608;11.462;2022-08-01T17:08:50;2.40;;;2.23;;
49041;SDS011;34859;51.608;11.462;2022-08-01T17:11:34;2.35;;;2.22;;
49041;SDS011;34859;51.608;11.462;2022-08-01T17:14:15;1.92;;;1.80;;